createdAt,value
2023-04-16T00:03:36.162Z,11.40
2023-04-16T00:08:43.734Z,11.40
2023-04-16T00:13:54.793Z,11.40
2023-04-16T00:19:01.166Z,11.40
2023-04-16T00:24:07.214Z,11.40
2023-04-16T00:29:13.332Z,11.50
2023-04-16T00:34:18.663Z,11.50
2023-04-16T00:39:22.459Z,11.50
2023-04-16T00:44:30.529Z,11.50
2023-04-16T00:49:36.114Z,11.50
2023-04-16T00:54:44.684Z,11.40
2023-04-16T00:59:50.223Z,11.40
2023-04-16T01:04:56.624Z,11.40
2023-04-16T01:10:01.796Z,11.40
2023-04-16T01:15:19.728Z,11.40
2023-04-16T01:20:23.760Z,11.40
2023-04-16T01:25:29.009Z,11.40
2023-04-16T01:30:35.664Z,11.40
2023-04-16T01:36:05.656Z,11.40
2023-04-16T01:41:10.663Z,11.40
2023-04-16T01:46:16.998Z,11.50
2023-04-16T01:51:26.286Z,11.40
2023-04-16T01:56:31.321Z,11.40
2023-04-16T02:01:34.652Z,11.50
2023-04-16T02:06:41.062Z,11.40
2023-04-16T02:11:45.892Z,11.50
2023-04-16T02:16:49.465Z,11.50
2023-04-16T02:22:16.990Z,11.40
2023-04-16T02:27:22.350Z,11.50
2023-04-16T02:32:35.457Z,11.50
2023-04-16T02:37:40.971Z,11.50
2023-04-16T02:42:46.084Z,11.50
2023-04-16T02:47:53.534Z,11.50
2023-04-16T02:52:59.343Z,11.50
2023-04-16T02:58:04.658Z,11.50
2023-04-16T03:03:13.642Z,11.50
2023-04-16T03:08:17.574Z,11.50
2023-04-16T03:13:24.877Z,11.50
2023-04-16T03:18:28.209Z,11.50
2023-04-16T03:23:42.961Z,11.50
2023-04-16T03:28:47.781Z,11.50
2023-04-16T03:33:59.483Z,11.50
2023-04-16T03:39:05.749Z,11.50
2023-04-16T03:44:11.112Z,11.50
2023-04-16T03:49:14.801Z,11.50
2023-04-16T03:54:20.171Z,11.50
2023-04-16T03:59:34.007Z,11.50
2023-04-16T04:04:37.843Z,11.40
2023-04-16T04:09:41.376Z,11.40
2023-04-16T04:14:46.449Z,11.40
2023-04-16T04:20:00.333Z,11.40
2023-04-16T04:30:51.902Z,11.40
2023-04-16T04:36:18.094Z,11.40
2023-04-16T04:41:44.795Z,11.40
2023-04-16T04:47:20.368Z,11.40
2023-04-16T04:52:53.876Z,11.30
2023-04-16T04:58:28.017Z,11.30
2023-04-16T05:03:58.209Z,11.30
2023-04-16T05:09:25.171Z,11.30
2023-04-16T05:14:51.023Z,11.30
2023-04-16T05:20:19.015Z,11.30
2023-04-16T05:25:52.806Z,11.30
2023-04-16T05:31:17.949Z,11.30
2023-04-16T05:36:50.895Z,11.30
2023-04-16T05:42:17.115Z,11.30
2023-04-16T05:47:45.084Z,11.30
2023-04-16T05:53:06.960Z,11.30
2023-04-16T05:58:29.804Z,11.30
2023-04-16T06:03:56.129Z,11.30
2023-04-16T06:09:20.873Z,11.30
2023-04-16T06:14:44.886Z,11.30
2023-04-16T06:20:18.035Z,11.30
2023-04-16T06:25:44.210Z,11.30
2023-04-16T06:31:10.015Z,11.30
2023-04-16T06:36:42.120Z,11.30
2023-04-16T06:42:20.303Z,11.30
2023-04-16T06:47:45.466Z,11.30
2023-04-16T06:53:08.996Z,11.30
2023-04-16T06:58:33.837Z,11.30
2023-04-16T07:04:09.370Z,11.30
2023-04-16T07:09:41.357Z,11.30
2023-04-16T07:15:21.074Z,11.30
2023-04-16T07:26:51.217Z,11.40
2023-04-16T07:32:16.709Z,11.40
2023-04-16T07:37:23.331Z,11.50
2023-04-16T07:42:38.321Z,11.50
2023-04-16T07:47:54.833Z,11.50
2023-04-16T07:53:23.745Z,11.60
2023-04-16T08:16:48.980Z,11.90
2023-04-16T08:28:10.002Z,12.00
2023-04-16T08:33:49.635Z,12.10
2023-04-16T08:39:18.943Z,12.20
2023-04-16T08:44:49.271Z,12.30
2023-04-16T08:50:26.336Z,12.40
2023-04-16T08:55:55.979Z,12.50
2023-04-16T09:01:25.076Z,12.50
2023-04-16T09:06:51.126Z,12.70
2023-04-16T09:12:23.547Z,12.70
2023-04-16T09:18:01.196Z,12.70
2023-04-16T09:23:33.042Z,12.80
2023-04-16T09:29:03.691Z,12.90
2023-04-16T09:34:27.054Z,12.90
2023-04-16T09:39:54.607Z,13.00
2023-04-16T09:45:23.041Z,13.00
2023-04-16T09:50:51.829Z,13.00
2023-04-16T09:56:25.764Z,13.00
2023-04-16T10:01:53.437Z,13.00
2023-04-16T10:07:42.095Z,13.10
2023-04-16T10:13:10.141Z,13.10
2023-04-16T10:18:37.114Z,13.20
2023-04-16T10:24:01.026Z,13.20
2023-04-16T10:29:28.195Z,13.30
2023-04-16T10:34:51.170Z,13.40
2023-04-16T10:40:33.017Z,13.50
2023-04-16T10:45:59.038Z,13.60
2023-04-16T10:51:33.967Z,13.60
2023-04-16T10:57:03.745Z,13.70
2023-04-16T11:02:39.221Z,13.70
2023-04-16T11:08:07.596Z,13.80
2023-04-16T11:13:35.045Z,13.80
2023-04-16T11:19:09.233Z,13.90
2023-04-16T11:24:53.783Z,13.80
2023-04-16T11:30:18.266Z,13.90
2023-04-16T11:35:48.141Z,13.90
2023-04-16T11:41:20.678Z,14.00
2023-04-16T11:46:48.208Z,14.00
2023-04-16T12:03:53.375Z,14.10
2023-04-16T12:09:51.760Z,14.20
2023-04-16T12:15:15.208Z,14.30
2023-04-16T12:20:41.319Z,14.30
2023-04-16T12:26:17.455Z,14.40
2023-04-16T12:31:52.128Z,14.40
2023-04-16T12:37:21.481Z,14.50
2023-04-16T12:42:46.166Z,14.50
2023-04-16T12:48:17.665Z,14.50
2023-04-16T12:53:43.347Z,14.70
2023-04-16T12:59:01.173Z,14.80
2023-04-16T13:04:07.840Z,14.90
2023-04-16T13:09:20.375Z,14.90
2023-04-16T13:14:42.041Z,15.00
2023-04-16T13:20:11.188Z,15.00
2023-04-16T13:26:06.220Z,15.10
2023-04-16T13:31:47.304Z,15.10
2023-04-16T13:37:36.301Z,15.20
2023-04-16T13:43:10.166Z,15.20
2023-04-16T13:48:53.599Z,15.20
2023-04-16T13:54:27.052Z,15.30
2023-04-16T13:59:55.394Z,15.40
2023-04-16T14:05:53.942Z,15.50
2023-04-16T14:11:46.630Z,15.70
2023-04-16T14:17:30.490Z,15.70
2023-04-16T14:23:47.983Z,15.80
2023-04-16T14:29:40.283Z,15.90
2023-04-16T14:35:48.405Z,15.90
2023-04-16T14:41:22.614Z,15.90
2023-04-16T14:47:14.078Z,16.00
2023-04-16T14:52:58.888Z,16.00
2023-04-16T14:58:53.282Z,16.10
2023-04-16T15:04:48.152Z,16.10
2023-04-16T15:11:00.190Z,16.10
2023-04-16T16:46:46.637Z,15.20
2023-04-16T16:52:36.365Z,15.10
2023-04-16T17:09:42.783Z,14.90
2023-04-16T17:21:12.401Z,14.90
2023-04-16T17:27:11.918Z,14.80
2023-04-16T17:32:23.716Z,14.80
2023-04-16T17:38:07.297Z,14.70
2023-04-16T17:43:28.136Z,14.60
2023-04-16T17:48:49.195Z,14.60
2023-04-16T17:54:03.826Z,14.50
2023-04-16T17:59:21.075Z,14.40
2023-04-16T18:04:46.294Z,14.40
2023-04-16T18:10:14.563Z,14.30
2023-04-16T18:15:58.390Z,14.30
2023-04-16T18:21:26.304Z,14.20
2023-04-16T18:26:55.431Z,14.20
2023-04-16T18:32:37.715Z,14.20
2023-04-16T18:38:03.327Z,14.20
2023-04-16T18:43:35.245Z,14.20
2023-04-16T18:49:04.736Z,14.10
2023-04-16T18:54:32.583Z,14.10
2023-04-16T19:00:05.850Z,14.10
2023-04-16T19:05:38.291Z,14.10
2023-04-16T19:11:08.372Z,14.10
2023-04-16T19:16:39.622Z,14.10
2023-04-16T19:22:04.480Z,14.10
2023-04-16T19:27:31.534Z,14.00
2023-04-16T19:32:58.094Z,14.00
2023-04-16T19:38:26.395Z,13.90
2023-04-16T19:43:49.540Z,13.90
2023-04-16T19:49:23.472Z,13.80
2023-04-16T19:55:01.490Z,13.80
2023-04-16T20:00:27.479Z,13.80
2023-04-16T20:06:02.035Z,13.80
2023-04-16T20:11:33.654Z,13.70
2023-04-16T20:17:23.894Z,13.70
2023-04-16T20:23:38.400Z,13.70
2023-04-16T20:29:42.981Z,13.60
2023-04-16T20:35:34.057Z,13.50
2023-04-16T20:41:36.993Z,13.50
2023-04-16T20:53:16.602Z,13.40
2023-04-16T20:59:08.963Z,13.30
2023-04-16T21:04:20.095Z,13.30
2023-04-16T21:15:36.288Z,13.20
2023-04-16T21:21:07.439Z,13.10
2023-04-16T21:26:35.675Z,13.10
2023-04-16T21:32:03.468Z,13.10
2023-04-16T21:37:33.563Z,13.10
2023-04-16T21:42:59.392Z,13.10
2023-04-16T21:48:22.473Z,13.10
2023-04-16T21:53:55.003Z,13.10
2023-04-16T22:04:56.368Z,13.10
2023-04-16T22:10:22.391Z,13.20
2023-04-16T22:15:48.464Z,13.10
2023-04-16T22:21:11.496Z,13.10
2023-04-16T22:26:36.444Z,13.10
2023-04-16T22:31:59.640Z,13.00
2023-04-16T22:37:23.456Z,13.00
2023-04-16T22:42:49.482Z,13.00
2023-04-16T22:48:13.446Z,13.00
2023-04-16T22:53:36.457Z,12.90
2023-04-16T22:59:01.486Z,12.90
2023-04-16T23:04:26.431Z,12.80
2023-04-16T23:09:50.462Z,12.80
2023-04-16T23:15:15.456Z,12.80
2023-04-16T23:20:39.709Z,12.70
2023-04-16T23:26:02.531Z,12.70
2023-04-16T23:31:27.749Z,12.70
2023-04-16T23:37:00.403Z,12.60
2023-04-16T23:42:27.291Z,12.60
2023-04-16T23:47:52.522Z,12.60
2023-04-16T23:53:16.568Z,12.60
2023-04-16T23:58:39.761Z,12.60
